sensor_id;sensor_type;location;lat;lon;timestamp;pressure;altitude;pressure_sealevel;temperature;humidity
16613;BME280;8419;52.358;9.752;2023-01-16T00:01:38;99171.00;;;15.70;34.79
16613;BME280;8419;52.358;9.752;2023-01-16T00:04:23;99170.00;;;15.66;34.86
16613;BME280;8419;52.358;9.752;2023-01-16T00:07:08;99163.00;;;15.69;34.77
16613;BME280;8419;52.358;9.752;2023-01-16T00:09:53;99157.00;;;15.68;34.78
16613;BME280;8419;52.358;9.752;2023-01-16T00:12:39;99160.00;;;15.70;34.78
16613;BME280;8419;52.358;9.752;2023-01-16T00:15:24;99147.00;;;15.72;34.75
16613;BME280;8419;52.358;9.752;2023-01-16T00:18:09;99138.00;;;15.80;34.57
16613;BME280;8419;52.358;9.752;2023-01-16T00:20:55;99137.00;;;15.82;34.54
16613;BME280;8419;52.358;9.752;2023-01-16T00:23:42;99130.00;;;15.94;34.39
16613;BME280;8419;52.358;9.752;2023-01-16T00:26:28;99120.00;;;16.05;34.20
16613;BME280;8419;52.358;9.752;2023-01-16T00:29:13;99120.00;;;16.16;33.98
16613;BME280;8419;52.358;9.752;2023-01-16T00:31:58;99107.00;;;16.12;34.05
16613;BME280;8419;52.358;9.752;2023-01-16T00:34:43;99104.00;;;16.20;33.89
16613;BME280;8419;52.358;9.752;2023-01-16T00:37:28;99105.00;;;16.24;33.80
16613;BME280;8419;52.358;9.752;2023-01-16T00:40:13;99099.00;;;16.16;33.85
16613;BME280;8419;52.358;9.752;2023-01-16T00:42:59;99098.00;;;16.03;33.98
16613;BME280;8419;52.358;9.752;2023-01-16T00:45:44;99093.00;;;15.94;34.01
16613;BME280;8419;52.358;9.752;2023-01-16T00:48:30;99089.00;;;15.98;33.86
16613;BME280;8419;52.358;9.752;2023-01-16T00:51:15;99090.00;;;15.79;34.09
16613;BME280;8419;52.358;9.752;2023-01-16T00:54:01;99085.00;;;15.79;34.03
16613;BME280;8419;52.358;9.752;2023-01-16T00:56:46;99073.00;;;15.77;34.04
16613;BME280;8419;52.358;9.752;2023-01-16T00:59:31;99090.00;;;15.76;34.04
16613;BME280;8419;52.358;9.752;2023-01-16T01:02:17;99091.00;;;15.82;34.00
16613;BME280;8419;52.358;9.752;2023-01-16T01:05:04;99092.00;;;15.80;34.02
16613;BME280;8419;52.358;9.752;2023-01-16T01:07:51;99090.00;;;15.79;34.02
16613;BME280;8419;52.358;9.752;2023-01-16T01:10:37;99097.00;;;15.93;33.85
16613;BME280;8419;52.358;9.752;2023-01-16T01:13:23;99099.00;;;16.00;33.82
16613;BME280;8419;52.358;9.752;2023-01-16T01:16:08;99095.00;;;16.03;33.80
16613;BME280;8419;52.358;9.752;2023-01-16T01:18:54;99092.00;;;16.03;33.86
16613;BME280;8419;52.358;9.752;2023-01-16T01:21:40;99104.00;;;16.10;33.81
16613;BME280;8419;52.358;9.752;2023-01-16T01:24:25;99101.00;;;16.11;33.88
16613;BME280;8419;52.358;9.752;2023-01-16T01:27:10;99085.00;;;16.21;33.69
16613;BME280;8419;52.358;9.752;2023-01-16T01:29:55;99078.00;;;16.17;33.74
16613;BME280;8419;52.358;9.752;2023-01-16T01:32:41;99078.00;;;16.22;33.71
16613;BME280;8419;52.358;9.752;2023-01-16T01:35:27;99068.00;;;16.24;33.78
16613;BME280;8419;52.358;9.752;2023-01-16T01:38:12;99072.00;;;16.19;33.84
16613;BME280;8419;52.358;9.752;2023-01-16T01:40:58;99063.00;;;16.14;33.94
16613;BME280;8419;52.358;9.752;2023-01-16T01:43:45;99059.00;;;16.12;34.03
16613;BME280;8419;52.358;9.752;2023-01-16T01:46:41;99051.00;;;16.10;34.08
16613;BME280;8419;52.358;9.752;2023-01-16T01:49:30;99054.00;;;16.18;33.95
16613;BME280;8419;52.358;9.752;2023-01-16T01:52:18;99051.00;;;16.17;34.00
16613;BME280;8419;52.358;9.752;2023-01-16T01:55:07;99048.00;;;16.23;33.96
16613;BME280;8419;52.358;9.752;2023-01-16T01:57:57;99041.00;;;16.15;34.03
16613;BME280;8419;52.358;9.752;2023-01-16T02:00:45;99037.00;;;16.08;34.10
16613;BME280;8419;52.358;9.752;2023-01-16T02:03:34;99023.00;;;15.95;34.29
16613;BME280;8419;52.358;9.752;2023-01-16T02:06:28;99025.00;;;15.86;34.42
16613;BME280;8419;52.358;9.752;2023-01-16T02:09:16;99019.00;;;15.76;34.50
16613;BME280;8419;52.358;9.752;2023-01-16T02:12:06;99011.00;;;15.72;34.49
16613;BME280;8419;52.358;9.752;2023-01-16T02:14:52;99017.00;;;15.62;34.60
16613;BME280;8419;52.358;9.752;2023-01-16T02:17:44;99007.00;;;15.54;34.68
16613;BME280;8419;52.358;9.752;2023-01-16T02:20:56;99002.00;;;15.51;34.77
16613;BME280;8419;52.358;9.752;2023-01-16T02:24:17;98993.00;;;15.52;34.78
16613;BME280;8419;52.358;9.752;2023-01-16T02:27:31;98983.00;;;15.56;34.69
16613;BME280;8419;52.358;9.752;2023-01-16T02:30:47;98981.00;;;15.44;34.92
16613;BME280;8419;52.358;9.752;2023-01-16T02:33:43;98986.00;;;15.44;34.94
16613;BME280;8419;52.358;9.752;2023-01-16T02:36:40;98969.00;;;15.53;34.85
16613;BME280;8419;52.358;9.752;2023-01-16T02:39:35;98953.00;;;15.43;34.97
16613;BME280;8419;52.358;9.752;2023-01-16T02:42:29;98955.00;;;15.46;35.01
16613;BME280;8419;52.358;9.752;2023-01-16T02:45:22;98947.00;;;15.28;35.19
16613;BME280;8419;52.358;9.752;2023-01-16T02:48:14;98946.00;;;15.34;35.28
16613;BME280;8419;52.358;9.752;2023-01-16T02:51:10;98937.00;;;15.51;35.11
16613;BME280;8419;52.358;9.752;2023-01-16T02:54:02;98931.00;;;15.64;35.04
16613;BME280;8419;52.358;9.752;2023-01-16T02:56:59;98923.00;;;15.71;34.92
16613;BME280;8419;52.358;9.752;2023-01-16T02:59:49;98923.00;;;15.63;35.09
16613;BME280;8419;52.358;9.752;2023-01-16T03:02:35;98925.00;;;15.74;34.96
16613;BME280;8419;52.358;9.752;2023-01-16T03:05:20;98921.00;;;15.67;35.15
16613;BME280;8419;52.358;9.752;2023-01-16T03:08:23;98926.00;;;15.76;35.07
16613;BME280;8419;52.358;9.752;2023-01-16T03:11:18;98920.00;;;15.83;35.12
16613;BME280;8419;52.358;9.752;2023-01-16T03:14:18;98922.00;;;15.87;35.06
16613;BME280;8419;52.358;9.752;2023-01-16T03:17:13;98896.00;;;15.92;35.09
16613;BME280;8419;52.358;9.752;2023-01-16T03:20:20;98907.00;;;15.88;35.12
16613;BME280;8419;52.358;9.752;2023-01-16T03:23:14;98897.00;;;15.78;35.34
16613;BME280;8419;52.358;9.752;2023-01-16T03:26:04;98897.00;;;15.67;35.53
16613;BME280;8419;52.358;9.752;2023-01-16T03:29:00;98895.00;;;15.72;35.49
16613;BME280;8419;52.358;9.752;2023-01-16T03:31:50;98886.00;;;15.78;35.49
16613;BME280;8419;52.358;9.752;2023-01-16T03:34:42;98874.00;;;15.66;35.64
16613;BME280;8419;52.358;9.752;2023-01-16T03:37:33;98873.00;;;15.59;35.72
16613;BME280;8419;52.358;9.752;2023-01-16T03:40:24;98868.00;;;15.42;35.96
16613;BME280;8419;52.358;9.752;2023-01-16T03:43:14;98857.00;;;15.39;36.08
16613;BME280;8419;52.358;9.752;2023-01-16T03:46:04;98859.00;;;15.46;36.07
16613;BME280;8419;52.358;9.752;2023-01-16T03:48:54;98852.00;;;15.48;36.04
16613;BME280;8419;52.358;9.752;2023-01-16T03:51:44;98848.00;;;15.58;35.94
16613;BME280;8419;52.358;9.752;2023-01-16T03:54:40;98841.00;;;15.51;36.13
16613;BME280;8419;52.358;9.752;2023-01-16T03:57:31;98841.00;;;15.51;36.20
16613;BME280;8419;52.358;9.752;2023-01-16T04:00:20;98832.00;;;15.37;36.37
16613;BME280;8419;52.358;9.752;2023-01-16T04:03:08;98832.00;;;15.45;36.21
16613;BME280;8419;52.358;9.752;2023-01-16T04:06:00;98837.00;;;15.40;36.31
16613;BME280;8419;52.358;9.752;2023-01-16T04:08:51;98831.00;;;15.33;36.39
16613;BME280;8419;52.358;9.752;2023-01-16T04:11:38;98831.00;;;15.30;36.42
16613;BME280;8419;52.358;9.752;2023-01-16T04:14:26;98828.00;;;15.28;36.39
16613;BME280;8419;52.358;9.752;2023-01-16T04:17:12;98827.00;;;15.16;36.53
16613;BME280;8419;52.358;9.752;2023-01-16T04:19:58;98814.00;;;15.15;36.56
16613;BME280;8419;52.358;9.752;2023-01-16T04:22:48;98811.00;;;14.98;36.93
16613;BME280;8419;52.358;9.752;2023-01-16T04:25:33;98807.00;;;15.11;36.79
16613;BME280;8419;52.358;9.752;2023-01-16T04:28:19;98801.00;;;15.14;36.83
16613;BME280;8419;52.358;9.752;2023-01-16T04:31:04;98798.00;;;15.18;36.79
16613;BME280;8419;52.358;9.752;2023-01-16T04:33:50;98788.00;;;15.14;36.79
16613;BME280;8419;52.358;9.752;2023-01-16T04:36:35;98781.00;;;15.05;37.00
16613;BME280;8419;52.358;9.752;2023-01-16T04:39:21;98776.00;;;15.08;36.95
16613;BME280;8419;52.358;9.752;2023-01-16T04:42:07;98773.00;;;15.03;37.00
16613;BME280;8419;52.358;9.752;2023-01-16T04:44:52;98773.00;;;15.03;37.00
16613;BME280;8419;52.358;9.752;2023-01-16T04:47:37;98764.00;;;15.07;36.98
16613;BME280;8419;52.358;9.752;2023-01-16T04:50:22;98760.00;;;15.10;36.98
16613;BME280;8419;52.358;9.752;2023-01-16T04:53:07;98752.00;;;14.90;37.24
16613;BME280;8419;52.358;9.752;2023-01-16T04:55:53;98752.00;;;14.87;37.14
16613;BME280;8419;52.358;9.752;2023-01-16T04:58:38;98750.00;;;14.70;37.34
16613;BME280;8419;52.358;9.752;2023-01-16T05:01:23;98740.00;;;14.70;37.24
16613;BME280;8419;52.358;9.752;2023-01-16T05:04:14;98734.00;;;14.62;37.27
16613;BME280;8419;52.358;9.752;2023-01-16T05:07:00;98727.00;;;14.49;37.43
16613;BME280;8419;52.358;9.752;2023-01-16T05:09:45;98738.00;;;14.43;37.46
16613;BME280;8419;52.358;9.752;2023-01-16T05:12:30;98729.00;;;14.36;37.53
16613;BME280;8419;52.358;9.752;2023-01-16T05:15:27;98723.00;;;14.31;37.54
16613;BME280;8419;52.358;9.752;2023-01-16T05:18:13;98720.00;;;14.26;37.62
16613;BME280;8419;52.358;9.752;2023-01-16T05:20:59;98725.00;;;14.23;37.62
16613;BME280;8419;52.358;9.752;2023-01-16T05:23:45;98716.00;;;14.24;37.58
16613;BME280;8419;52.358;9.752;2023-01-16T05:26:31;98714.00;;;14.24;37.62
16613;BME280;8419;52.358;9.752;2023-01-16T05:29:17;98711.00;;;14.35;37.55
16613;BME280;8419;52.358;9.752;2023-01-16T05:32:08;98711.00;;;14.46;37.47
16613;BME280;8419;52.358;9.752;2023-01-16T05:34:58;98710.00;;;14.58;37.37
16613;BME280;8419;52.358;9.752;2023-01-16T05:37:49;98702.00;;;14.70;37.27
16613;BME280;8419;52.358;9.752;2023-01-16T05:40:35;98698.00;;;14.77;37.24
16613;BME280;8419;52.358;9.752;2023-01-16T05:43:20;98701.00;;;14.85;37.22
16613;BME280;8419;52.358;9.752;2023-01-16T05:46:08;98695.00;;;14.88;37.20
16613;BME280;8419;52.358;9.752;2023-01-16T05:48:53;98691.00;;;14.90;37.11
16613;BME280;8419;52.358;9.752;2023-01-16T05:51:39;98687.00;;;14.86;37.14
16613;BME280;8419;52.358;9.752;2023-01-16T05:54:25;98671.00;;;14.83;37.19
16613;BME280;8419;52.358;9.752;2023-01-16T05:57:10;98663.00;;;14.82;37.29
16613;BME280;8419;52.358;9.752;2023-01-16T05:59:55;98665.00;;;14.79;37.28
16613;BME280;8419;52.358;9.752;2023-01-16T06:02:41;98663.00;;;14.75;37.40
16613;BME280;8419;52.358;9.752;2023-01-16T06:05:26;98659.00;;;14.79;37.36
16613;BME280;8419;52.358;9.752;2023-01-16T06:08:11;98663.00;;;14.75;37.43
16613;BME280;8419;52.358;9.752;2023-01-16T06:10:57;98665.00;;;14.86;37.23
16613;BME280;8419;52.358;9.752;2023-01-16T06:13:43;98651.00;;;14.71;37.53
16613;BME280;8419;52.358;9.752;2023-01-16T06:16:30;98642.00;;;14.66;37.71
16613;BME280;8419;52.358;9.752;2023-01-16T06:19:15;98637.00;;;14.60;37.70
16613;BME280;8419;52.358;9.752;2023-01-16T06:22:01;98635.00;;;14.65;37.58
16613;BME280;8419;52.358;9.752;2023-01-16T06:24:46;98630.00;;;14.58;37.63
16613;BME280;8419;52.358;9.752;2023-01-16T06:27:32;98631.00;;;14.52;37.67
16613;BME280;8419;52.358;9.752;2023-01-16T06:30:18;98630.00;;;14.48;37.79
16613;BME280;8419;52.358;9.752;2023-01-16T06:33:03;98626.00;;;14.54;37.71
16613;BME280;8419;52.358;9.752;2023-01-16T06:35:48;98619.00;;;14.61;37.64
16613;BME280;8419;52.358;9.752;2023-01-16T06:38:34;98620.00;;;14.67;37.67
16613;BME280;8419;52.358;9.752;2023-01-16T06:41:26;98611.00;;;14.82;37.56
16613;BME280;8419;52.358;9.752;2023-01-16T06:44:11;98607.00;;;14.92;37.57
16613;BME280;8419;52.358;9.752;2023-01-16T06:46:57;98598.00;;;14.93;37.51
16613;BME280;8419;52.358;9.752;2023-01-16T06:49:42;98600.00;;;14.91;37.63
16613;BME280;8419;52.358;9.752;2023-01-16T06:52:27;98592.00;;;15.03;37.54
16613;BME280;8419;52.358;9.752;2023-01-16T06:55:12;98583.00;;;14.97;37.61
16613;BME280;8419;52.358;9.752;2023-01-16T06:57:58;98584.00;;;14.85;37.78
16613;BME280;8419;52.358;9.752;2023-01-16T07:00:44;98576.00;;;14.80;37.86
16613;BME280;8419;52.358;9.752;2023-01-16T07:03:29;98566.00;;;14.77;37.91
16613;BME280;8419;52.358;9.752;2023-01-16T07:06:24;98566.00;;;14.74;37.91
16613;BME280;8419;52.358;9.752;2023-01-16T07:09:15;98562.00;;;14.64;38.02
16613;BME280;8419;52.358;9.752;2023-01-16T07:12:01;98562.00;;;14.46;38.18
16613;BME280;8419;52.358;9.752;2023-01-16T07:14:47;98566.00;;;14.48;38.21
16613;BME280;8419;52.358;9.752;2023-01-16T07:17:57;98554.00;;;14.57;38.15
16613;BME280;8419;52.358;9.752;2023-01-16T07:21:09;98558.00;;;14.76;37.97
16613;BME280;8419;52.358;9.752;2023-01-16T07:24:16;98554.00;;;14.83;37.98
16613;BME280;8419;52.358;9.752;2023-01-16T07:27:04;98548.00;;;14.92;37.94
16613;BME280;8419;52.358;9.752;2023-01-16T07:29:54;98541.00;;;14.98;37.91
16613;BME280;8419;52.358;9.752;2023-01-16T07:32:41;98537.00;;;14.94;37.98
16613;BME280;8419;52.358;9.752;2023-01-16T07:35:27;98527.00;;;14.95;38.00
16613;BME280;8419;52.358;9.752;2023-01-16T07:38:13;98523.00;;;14.88;38.16
16613;BME280;8419;52.358;9.752;2023-01-16T07:41:00;98512.00;;;14.93;38.18
16613;BME280;8419;52.358;9.752;2023-01-16T07:43:46;98503.00;;;15.00;38.11
16613;BME280;8419;52.358;9.752;2023-01-16T07:46:34;98509.00;;;14.97;38.13
16613;BME280;8419;52.358;9.752;2023-01-16T07:49:23;98500.00;;;14.92;38.21
16613;BME280;8419;52.358;9.752;2023-01-16T07:52:08;98489.00;;;14.89;38.22
16613;BME280;8419;52.358;9.752;2023-01-16T07:54:54;98493.00;;;14.78;38.30
16613;BME280;8419;52.358;9.752;2023-01-16T07:57:40;98491.00;;;14.72;38.34
16613;BME280;8419;52.358;9.752;2023-01-16T08:00:26;98495.00;;;14.67;38.41
16613;BME280;8419;52.358;9.752;2023-01-16T08:03:13;98490.00;;;14.67;38.43
16613;BME280;8419;52.358;9.752;2023-01-16T08:06:04;98488.00;;;14.75;38.28
16613;BME280;8419;52.358;9.752;2023-01-16T08:08:49;98479.00;;;14.73;38.44
16613;BME280;8419;52.358;9.752;2023-01-16T08:11:36;98479.00;;;14.86;38.25
16613;BME280;8419;52.358;9.752;2023-01-16T08:14:23;98461.00;;;14.91;38.23
16613;BME280;8419;52.358;9.752;2023-01-16T08:17:08;98461.00;;;14.91;38.20
16613;BME280;8419;52.358;9.752;2023-01-16T08:19:56;98452.00;;;14.94;38.19
16613;BME280;8419;52.358;9.752;2023-01-16T08:22:45;98444.00;;;14.95;38.17
16613;BME280;8419;52.358;9.752;2023-01-16T08:25:33;98445.00;;;15.01;38.08
16613;BME280;8419;52.358;9.752;2023-01-16T08:28:22;98447.00;;;15.07;37.94
16613;BME280;8419;52.358;9.752;2023-01-16T08:31:09;98438.00;;;15.05;38.02
16613;BME280;8419;52.358;9.752;2023-01-16T08:33:56;98421.00;;;15.12;37.92
16613;BME280;8419;52.358;9.752;2023-01-16T08:36:45;98419.00;;;15.27;37.73
16613;BME280;8419;52.358;9.752;2023-01-16T08:39:30;98412.00;;;15.36;37.60
16613;BME280;8419;52.358;9.752;2023-01-16T08:42:16;98401.00;;;15.39;37.56
16613;BME280;8419;52.358;9.752;2023-01-16T08:45:20;98404.00;;;15.44;37.54
16613;BME280;8419;52.358;9.752;2023-01-16T08:48:25;98401.00;;;15.48;37.46
16613;BME280;8419;52.358;9.752;2023-01-16T08:51:29;98400.00;;;15.60;37.34
16613;BME280;8419;52.358;9.752;2023-01-16T08:54:15;98399.00;;;15.70;37.24
16613;BME280;8419;52.358;9.752;2023-01-16T08:56:59;98397.00;;;15.73;37.24
16613;BME280;8419;52.358;9.752;2023-01-16T08:59:45;98388.00;;;15.83;37.12
16613;BME280;8419;52.358;9.752;2023-01-16T09:02:30;98385.00;;;15.97;36.90
16613;BME280;8419;52.358;9.752;2023-01-16T09:05:19;98379.00;;;16.03;36.84
16613;BME280;8419;52.358;9.752;2023-01-16T09:08:07;98373.00;;;16.15;36.66
16613;BME280;8419;52.358;9.752;2023-01-16T09:10:52;98366.00;;;16.24;36.54
16613;BME280;8419;52.358;9.752;2023-01-16T09:13:57;98359.00;;;16.27;36.56
16613;BME280;8419;52.358;9.752;2023-01-16T09:16:45;98360.00;;;16.22;36.66
16613;BME280;8419;52.358;9.752;2023-01-16T09:19:30;98359.00;;;16.24;36.63
16613;BME280;8419;52.358;9.752;2023-01-16T09:22:16;98349.00;;;16.24;36.63
16613;BME280;8419;52.358;9.752;2023-01-16T09:25:01;98351.00;;;16.31;36.52
16613;BME280;8419;52.358;9.752;2023-01-16T09:27:46;98344.00;;;16.34;36.42
16613;BME280;8419;52.358;9.752;2023-01-16T09:30:32;98342.00;;;16.55;36.09
16613;BME280;8419;52.358;9.752;2023-01-16T09:33:18;98339.00;;;16.53;36.07
16613;BME280;8419;52.358;9.752;2023-01-16T09:36:05;98337.00;;;16.43;36.32
16613;BME280;8419;52.358;9.752;2023-01-16T09:38:51;98333.00;;;16.40;36.39
16613;BME280;8419;52.358;9.752;2023-01-16T09:41:45;98324.00;;;16.38;36.44
16613;BME280;8419;52.358;9.752;2023-01-16T09:44:53;98329.00;;;16.41;36.36
16613;BME280;8419;52.358;9.752;2023-01-16T09:47:40;98318.00;;;16.47;36.27
16613;BME280;8419;52.358;9.752;2023-01-16T09:50:32;98306.00;;;16.48;36.26
16613;BME280;8419;52.358;9.752;2023-01-16T09:53:31;98301.00;;;16.56;36.17
16613;BME280;8419;52.358;9.752;2023-01-16T09:56:39;98299.00;;;16.71;35.98
16613;BME280;8419;52.358;9.752;2023-01-16T09:59:49;98286.00;;;16.76;35.90
16613;BME280;8419;52.358;9.752;2023-01-16T10:02:37;98282.00;;;16.77;35.88
16613;BME280;8419;52.358;9.752;2023-01-16T10:05:34;98269.00;;;16.82;35.85
16613;BME280;8419;52.358;9.752;2023-01-16T10:08:27;98254.00;;;16.86;35.86
16613;BME280;8419;52.358;9.752;2023-01-16T10:11:23;98241.00;;;16.94;35.72
16613;BME280;8419;52.358;9.752;2023-01-16T10:14:26;98238.00;;;17.04;35.67
16613;BME280;8419;52.358;9.752;2023-01-16T10:17:20;98225.00;;;17.12;35.56
16613;BME280;8419;52.358;9.752;2023-01-16T10:20:24;98213.00;;;17.23;35.42
16613;BME280;8419;52.358;9.752;2023-01-16T10:23:28;98202.00;;;17.35;35.23
16613;BME280;8419;52.358;9.752;2023-01-16T10:26:25;98190.00;;;17.31;35.33
16613;BME280;8419;52.358;9.752;2023-01-16T10:29:20;98184.00;;;17.46;35.14
16613;BME280;8419;52.358;9.752;2023-01-16T10:32:12;98174.00;;;17.58;34.95
16613;BME280;8419;52.358;9.752;2023-01-16T10:35:02;98166.00;;;17.67;34.75
16613;BME280;8419;52.358;9.752;2023-01-16T10:37:50;98155.00;;;17.79;34.63
16613;BME280;8419;52.358;9.752;2023-01-16T10:40:37;98154.00;;;17.88;34.62
16613;BME280;8419;52.358;9.752;2023-01-16T10:43:34;98150.00;;;17.93;34.44
16613;BME280;8419;52.358;9.752;2023-01-16T10:46:43;98137.00;;;17.91;34.44
16613;BME280;8419;52.358;9.752;2023-01-16T10:49:47;98133.00;;;17.94;34.36
16613;BME280;8419;52.358;9.752;2023-01-16T10:52:33;98122.00;;;17.79;34.51
16613;BME280;8419;52.358;9.752;2023-01-16T10:55:19;98106.00;;;17.75;34.43
16613;BME280;8419;52.358;9.752;2023-01-16T10:58:11;98110.00;;;17.80;34.36
16613;BME280;8419;52.358;9.752;2023-01-16T11:01:09;98092.00;;;17.71;34.39
16613;BME280;8419;52.358;9.752;2023-01-16T11:03:59;98097.00;;;17.56;34.52
16613;BME280;8419;52.358;9.752;2023-01-16T11:06:47;98094.00;;;17.57;34.50
16613;BME280;8419;52.358;9.752;2023-01-16T11:09:33;98080.00;;;17.49;34.51
16613;BME280;8419;52.358;9.752;2023-01-16T11:12:25;98063.00;;;17.52;34.35
16613;BME280;8419;52.358;9.752;2023-01-16T11:15:29;98066.00;;;17.49;34.34
16613;BME280;8419;52.358;9.752;2023-01-16T11:18:35;98058.00;;;17.46;34.33
16613;BME280;8419;52.358;9.752;2023-01-16T11:21:27;98042.00;;;17.40;34.33
16613;BME280;8419;52.358;9.752;2023-01-16T11:24:20;98028.00;;;17.47;34.27
16613;BME280;8419;52.358;9.752;2023-01-16T11:27:12;98025.00;;;17.55;34.10
16613;BME280;8419;52.358;9.752;2023-01-16T11:29:58;98005.00;;;17.57;34.08
16613;BME280;8419;52.358;9.752;2023-01-16T11:32:48;98008.00;;;17.67;33.95
16613;BME280;8419;52.358;9.752;2023-01-16T11:35:36;98004.00;;;17.74;33.84
16613;BME280;8419;52.358;9.752;2023-01-16T11:38:23;97985.00;;;17.77;33.78
16613;BME280;8419;52.358;9.752;2023-01-16T11:41:10;97985.00;;;17.86;33.65
16613;BME280;8419;52.358;9.752;2023-01-16T11:47:39;97974.00;;;18.02;33.42
16613;BME280;8419;52.358;9.752;2023-01-16T11:50:32;97974.00;;;17.92;33.38
16613;BME280;8419;52.358;9.752;2023-01-16T11:53:18;97957.00;;;17.87;33.37
16613;BME280;8419;52.358;9.752;2023-01-16T11:56:16;97959.00;;;17.86;33.32
16613;BME280;8419;52.358;9.752;2023-01-16T11:59:18;97954.00;;;17.90;33.21
16613;BME280;8419;52.358;9.752;2023-01-16T12:02:27;97940.00;;;18.01;33.01
16613;BME280;8419;52.358;9.752;2023-01-16T12:05:26;97930.00;;;18.05;32.95
16613;BME280;8419;52.358;9.752;2023-01-16T12:08:52;97923.00;;;18.16;32.80
16613;BME280;8419;52.358;9.752;2023-01-16T12:12:07;97919.00;;;18.30;32.60
16613;BME280;8419;52.358;9.752;2023-01-16T12:15:21;97912.00;;;18.29;32.53
16613;BME280;8419;52.358;9.752;2023-01-16T12:18:16;97890.00;;;18.23;32.47
16613;BME280;8419;52.358;9.752;2023-01-16T12:21:21;97888.00;;;18.28;32.44
16613;BME280;8419;52.358;9.752;2023-01-16T12:24:18;97877.00;;;18.41;32.28
16613;BME280;8419;52.358;9.752;2023-01-16T12:27:16;97881.00;;;18.51;32.07
16613;BME280;8419;52.358;9.752;2023-01-16T12:30:19;97866.00;;;18.67;31.86
16613;BME280;8419;52.358;9.752;2023-01-16T12:33:12;97864.00;;;18.72;31.76
16613;BME280;8419;52.358;9.752;2023-01-16T12:36:10;97847.00;;;18.71;31.67
16613;BME280;8419;52.358;9.752;2023-01-16T12:39:03;97849.00;;;18.77;31.45
16613;BME280;8419;52.358;9.752;2023-01-16T12:42:00;97847.00;;;18.78;31.37
16613;BME280;8419;52.358;9.752;2023-01-16T12:45:19;97825.00;;;18.63;31.50
16613;BME280;8419;52.358;9.752;2023-01-16T12:48:20;97827.00;;;18.57;31.68
16613;BME280;8419;52.358;9.752;2023-01-16T12:51:25;97817.00;;;18.73;31.55
16613;BME280;8419;52.358;9.752;2023-01-16T12:54:29;97814.00;;;19.01;31.23
16613;BME280;8419;52.358;9.752;2023-01-16T12:57:29;97805.00;;;19.05;31.17
16613;BME280;8419;52.358;9.752;2023-01-16T13:00:23;97802.00;;;19.13;31.15
16613;BME280;8419;52.358;9.752;2023-01-16T13:03:16;97784.00;;;19.22;30.89
16613;BME280;8419;52.358;9.752;2023-01-16T13:06:08;97787.00;;;19.30;30.92
16613;BME280;8419;52.358;9.752;2023-01-16T13:08:58;97777.00;;;19.38;30.80
16613;BME280;8419;52.358;9.752;2023-01-16T13:12:01;97777.00;;;19.44;30.74
16613;BME280;8419;52.358;9.752;2023-01-16T13:15:09;97766.00;;;19.29;30.79
16613;BME280;8419;52.358;9.752;2023-01-16T13:18:00;97756.00;;;19.06;30.98
16613;BME280;8419;52.358;9.752;2023-01-16T13:20:52;97749.00;;;19.07;30.98
16613;BME280;8419;52.358;9.752;2023-01-16T13:23:42;97747.00;;;19.09;30.88
16613;BME280;8419;52.358;9.752;2023-01-16T13:26:31;97742.00;;;19.10;30.74
16613;BME280;8419;52.358;9.752;2023-01-16T13:29:24;97732.00;;;18.99;30.86
16613;BME280;8419;52.358;9.752;2023-01-16T13:32:23;97741.00;;;18.95;30.95
16613;BME280;8419;52.358;9.752;2023-01-16T13:35:18;97729.00;;;18.85;31.00
16613;BME280;8419;52.358;9.752;2023-01-16T13:38:29;97729.00;;;18.66;31.17
16613;BME280;8419;52.358;9.752;2023-01-16T13:41:23;97736.00;;;18.54;31.31
16613;BME280;8419;52.358;9.752;2023-01-16T13:44:14;97726.00;;;18.43;31.46
16613;BME280;8419;52.358;9.752;2023-01-16T13:47:23;97721.00;;;18.37;31.39
16613;BME280;8419;52.358;9.752;2023-01-16T13:50:20;97722.00;;;18.31;31.33
16613;BME280;8419;52.358;9.752;2023-01-16T13:53:09;97725.00;;;17.98;31.66
16613;BME280;8419;52.358;9.752;2023-01-16T13:56:04;97720.00;;;17.84;31.83
16613;BME280;8419;52.358;9.752;2023-01-16T13:58:55;97713.00;;;17.83;31.81
16613;BME280;8419;52.358;9.752;2023-01-16T14:01:55;97708.00;;;17.74;31.79
16613;BME280;8419;52.358;9.752;2023-01-16T14:04:41;97705.00;;;17.66;31.82
16613;BME280;8419;52.358;9.752;2023-01-16T14:08:25;97703.00;;;17.63;31.67
16613;BME280;8419;52.358;9.752;2023-01-16T14:11:35;97695.00;;;17.62;31.60
16613;BME280;8419;52.358;9.752;2023-01-16T14:14:28;97688.00;;;17.38;31.89
16613;BME280;8419;52.358;9.752;2023-01-16T14:18:01;97686.00;;;17.27;32.08
16613;BME280;8419;52.358;9.752;2023-01-16T14:21:00;97690.00;;;17.29;32.12
16613;BME280;8419;52.358;9.752;2023-01-16T14:23:50;97681.00;;;17.15;32.37
16613;BME280;8419;52.358;9.752;2023-01-16T14:26:50;97686.00;;;17.22;32.24
16613;BME280;8419;52.358;9.752;2023-01-16T14:29:43;97688.00;;;17.22;32.20
16613;BME280;8419;52.358;9.752;2023-01-16T14:32:30;97684.00;;;17.09;32.33
16613;BME280;8419;52.358;9.752;2023-01-16T14:35:18;97681.00;;;17.11;32.18
16613;BME280;8419;52.358;9.752;2023-01-16T14:38:06;97665.00;;;16.99;32.25
16613;BME280;8419;52.358;9.752;2023-01-16T14:41:20;97674.00;;;16.91;32.25
16613;BME280;8419;52.358;9.752;2023-01-16T14:44:28;97669.00;;;16.90;32.39
16613;BME280;8419;52.358;9.752;2023-01-16T14:47:33;97669.00;;;16.87;32.35
16613;BME280;8419;52.358;9.752;2023-01-16T14:50:50;97666.00;;;16.85;32.30
16613;BME280;8419;52.358;9.752;2023-01-16T14:53:57;97661.00;;;16.85;32.30
16613;BME280;8419;52.358;9.752;2023-01-16T14:57:06;97657.00;;;16.86;32.34
16613;BME280;8419;52.358;9.752;2023-01-16T15:00:03;97653.00;;;16.82;32.40
16613;BME280;8419;52.358;9.752;2023-01-16T15:02:56;97648.00;;;16.93;32.28
16613;BME280;8419;52.358;9.752;2023-01-16T15:05:46;97641.00;;;16.86;32.43
16613;BME280;8419;52.358;9.752;2023-01-16T15:08:38;97647.00;;;16.83;32.48
16613;BME280;8419;52.358;9.752;2023-01-16T15:11:27;97629.00;;;16.77;32.59
16613;BME280;8419;52.358;9.752;2023-01-16T15:14:29;97625.00;;;16.76;32.62
16613;BME280;8419;52.358;9.752;2023-01-16T15:17:27;97612.00;;;16.70;32.66
16613;BME280;8419;52.358;9.752;2023-01-16T15:20:36;97604.00;;;16.67;32.76
16613;BME280;8419;52.358;9.752;2023-01-16T15:23:40;97602.00;;;16.62;32.81
16613;BME280;8419;52.358;9.752;2023-01-16T15:26:39;97579.00;;;16.58;32.85